Terminal Aerodrome Forecast
Issued by NWS Corpus Christi, TX

Current Version | Previous Version | Text Only | Print | Product List | Glossary Off
Versions: 1 2 3 4 5 6 7 8 9 10 11 12

511
FTUS44 KCRP 271129
TAFCRP
TAF
KCRP 271129Z 2712/2812 16005KT P6SM FEW018 SCT150
     FM271500 16013G18KT P6SM SCT030 BKN150
     FM271900 14016G22KT P6SM FEW040 SCT150
     FM280100 15010KT P6SM FEW020
     FM280800 17007KT P6SM SCT018=

USA.gov is the U.S. government's official web portal to all federal, state and local government web resources and services.